createdAt,value
2023-05-01T00:00:00.347Z,36.8
2023-05-01T00:05:01.304Z,36.8
2023-05-01T00:10:04.274Z,36.8
2023-05-01T00:15:01.868Z,36.8
2023-05-01T00:25:01.182Z,36.7
2023-05-01T00:30:00.324Z,36.7
2023-05-01T00:35:01.096Z,36.8
2023-05-01T00:45:01.319Z,36.8
2023-05-01T00:50:01.378Z,36.8
2023-05-01T00:55:01.126Z,36.8
2023-05-01T01:05:02.170Z,36.8
2023-05-01T01:15:01.102Z,36.7
2023-05-01T01:20:01.653Z,36.8
2023-05-01T01:25:01.080Z,36.8
2023-05-01T01:35:01.302Z,36.8
2023-05-01T01:45:01.136Z,36.9
2023-05-01T01:50:01.515Z,36.9
2023-05-01T01:55:01.844Z,36.9
2023-05-01T02:05:01.153Z,36.9
2023-05-01T02:10:01.383Z,36.9
2023-05-01T02:15:01.942Z,36.9
2023-05-01T02:20:01.228Z,36.9
2023-05-01T02:25:01.294Z,36.9
2023-05-01T02:30:03.588Z,36.8
2023-05-01T02:35:01.782Z,36.8
2023-05-01T02:45:02.226Z,36.7
2023-05-01T02:55:01.348Z,36.6
2023-05-01T03:05:01.772Z,39.0
2023-05-01T03:10:01.251Z,39.0
2023-05-01T03:15:01.092Z,39.1
2023-05-01T03:20:01.420Z,39.2
2023-05-01T03:25:01.128Z,39.3
2023-05-01T03:30:01.247Z,39.4
2023-05-01T03:35:01.329Z,39.4
2023-05-01T03:45:01.108Z,39.5
2023-05-01T03:55:01.060Z,39.6
2023-05-01T04:05:01.091Z,39.8
2023-05-01T04:10:01.350Z,39.8
2023-05-01T04:15:00.321Z,39.9
2023-05-01T04:20:01.080Z,39.9
2023-05-01T04:25:01.297Z,40.0
2023-05-01T04:30:01.131Z,40.0
2023-05-01T04:35:01.629Z,40.1
2023-05-01T04:45:01.132Z,40.2
2023-05-01T04:55:01.335Z,40.3
2023-05-01T05:00:01.068Z,40.3
2023-05-01T05:05:01.170Z,40.3
2023-05-01T05:15:01.085Z,40.5
2023-05-01T05:25:02.058Z,40.5
2023-05-01T05:35:01.030Z,40.6
2023-05-01T05:40:01.381Z,40.6
2023-05-01T05:45:01.153Z,40.6
2023-05-01T05:50:01.599Z,40.6
2023-05-01T05:55:01.118Z,40.7
2023-05-01T06:05:01.149Z,40.9
2023-05-01T06:10:01.627Z,41.0
2023-05-01T06:15:03.411Z,41.1
2023-05-01T06:20:01.663Z,41.1
2023-05-01T06:25:01.891Z,41.2
2023-05-01T06:30:01.401Z,41.2
2023-05-01T06:35:00.325Z,41.3
2023-05-01T06:40:03.767Z,41.3
2023-05-01T06:45:01.277Z,41.3
2023-05-01T06:55:01.552Z,41.2
2023-05-01T07:00:01.303Z,41.0
2023-05-01T07:05:01.344Z,40.9
2023-05-01T07:10:01.134Z,40.8
2023-05-01T07:15:02.020Z,40.8
2023-05-01T07:20:01.384Z,40.8
2023-05-01T07:25:01.185Z,40.7
2023-05-01T07:30:03.404Z,40.7
2023-05-01T07:35:01.107Z,40.7
2023-05-01T07:40:00.379Z,40.7
2023-05-01T07:45:02.084Z,40.7
2023-05-01T07:50:01.072Z,40.7
2023-05-01T07:55:01.054Z,40.7
2023-05-01T08:05:01.446Z,40.6
2023-05-01T08:10:01.787Z,40.6
2023-05-01T08:15:01.933Z,40.6
2023-05-01T08:20:01.381Z,40.6
2023-05-01T08:25:01.154Z,40.6
2023-05-01T08:30:01.260Z,40.7
2023-05-01T08:35:01.397Z,40.7
2023-05-01T08:45:02.394Z,40.7
2023-05-01T08:50:01.573Z,40.7
2023-05-01T08:55:00.311Z,40.7
2023-05-01T09:05:01.737Z,40.7
2023-05-01T09:10:01.398Z,40.7
2023-05-01T09:15:01.323Z,40.7
2023-05-01T09:25:01.823Z,40.7
2023-05-01T09:30:01.121Z,40.7
2023-05-01T09:35:00.326Z,40.7
2023-05-01T09:40:01.516Z,40.8
2023-05-01T09:45:01.113Z,40.8
2023-05-01T09:50:01.688Z,40.9
2023-05-01T09:55:01.097Z,40.9
2023-05-01T10:00:01.236Z,40.9
2023-05-01T10:05:01.192Z,40.9
2023-05-01T10:10:02.387Z,40.9
2023-05-01T10:15:23.721Z,40.8
2023-05-01T10:25:01.340Z,40.8
2023-05-01T10:30:01.524Z,40.8
2023-05-01T10:35:03.179Z,40.9
2023-05-01T10:45:01.131Z,40.9
2023-05-01T10:50:01.487Z,40.9
2023-05-01T10:55:00.347Z,41.0
2023-05-01T11:05:01.550Z,40.9
2023-05-01T11:10:02.122Z,40.9
2023-05-01T11:15:01.109Z,40.9
2023-05-01T11:25:01.307Z,40.8
2023-05-01T11:30:02.215Z,40.9
2023-05-01T11:35:01.509Z,41.0
2023-05-01T11:45:01.393Z,41.1
2023-05-01T11:50:01.190Z,41.1
2023-05-01T11:55:00.883Z,41.2
2023-05-01T12:05:01.685Z,41.3
2023-05-01T12:10:03.179Z,41.3
2023-05-01T12:15:03.609Z,41.3
2023-05-01T12:25:01.578Z,41.3
2023-05-01T12:30:01.338Z,41.3
2023-05-01T12:35:01.646Z,41.3
2023-05-01T12:45:01.386Z,41.4
2023-05-01T12:50:01.588Z,41.4
2023-05-01T12:55:01.503Z,41.4
2023-05-01T13:05:01.028Z,41.4
2023-05-01T13:10:02.342Z,41.5
2023-05-01T13:15:01.231Z,41.4
2023-05-01T13:25:00.330Z,41.4
2023-05-01T13:30:01.780Z,41.4
2023-05-01T13:35:01.518Z,41.4
2023-05-01T13:45:01.360Z,41.6
2023-05-01T13:50:01.395Z,41.9
2023-05-01T13:55:05.039Z,42.1
2023-05-01T14:05:01.904Z,42.3
2023-05-01T14:10:01.383Z,41.9
2023-05-01T14:15:02.206Z,41.4
2023-05-01T14:25:02.033Z,41.2
2023-05-01T14:30:01.634Z,40.5
2023-05-01T14:35:02.718Z,40.5
2023-05-01T14:45:01.241Z,41.2
2023-05-01T14:50:01.164Z,41.8
2023-05-01T14:55:01.196Z,41.7
2023-05-01T15:05:01.387Z,42.1
2023-05-01T15:10:01.443Z,42.2
2023-05-01T15:15:01.260Z,42.3
2023-05-01T15:25:01.608Z,42.4
2023-05-01T15:30:01.530Z,42.3
2023-05-01T15:35:01.675Z,42.4
2023-05-01T15:45:01.408Z,42.4
2023-05-01T15:50:02.440Z,42.4
2023-05-01T15:55:01.137Z,42.3
2023-05-01T16:05:01.073Z,42.3
2023-05-01T16:10:02.040Z,42.3
2023-05-01T16:15:01.148Z,42.3
2023-05-01T16:25:01.341Z,42.3
2023-05-01T16:30:02.216Z,42.3
2023-05-01T16:35:00.324Z,42.3
2023-05-01T16:40:02.024Z,42.3
2023-05-01T16:45:01.379Z,42.2
2023-05-01T16:55:01.353Z,42.2
2023-05-01T17:00:02.583Z,42.1
2023-05-01T17:05:01.111Z,42.1
2023-05-01T17:10:02.058Z,42.1
2023-05-01T17:15:01.146Z,42.0
2023-05-01T17:25:00.317Z,41.8
2023-05-01T17:30:02.054Z,41.7
2023-05-01T17:35:01.440Z,41.6
2023-05-01T17:45:01.147Z,41.4
2023-05-01T17:50:01.781Z,41.3
2023-05-01T17:55:00.832Z,41.3
2023-05-01T18:00:02.001Z,41.3
2023-05-01T18:05:01.508Z,41.1
2023-05-01T18:15:01.664Z,39.7
2023-05-01T18:25:01.138Z,38.8
2023-05-01T18:35:00.374Z,38.6
2023-05-01T18:45:01.165Z,38.9
2023-05-01T18:50:02.823Z,39.7
2023-05-01T18:55:01.382Z,39.2
2023-05-01T19:05:03.021Z,38.6
2023-05-01T19:15:01.008Z,38.1
2023-05-01T19:25:01.679Z,38.2
2023-05-01T19:30:02.300Z,38.1
2023-05-01T19:35:01.185Z,38.3
2023-05-01T19:45:00.897Z,38.5
2023-05-01T19:55:01.188Z,39.1
2023-05-01T20:00:01.845Z,39.9
2023-05-01T20:05:01.119Z,40.3
2023-05-01T20:10:01.691Z,40.6
2023-05-01T20:15:00.986Z,41.0
2023-05-01T20:20:01.430Z,41.0
2023-05-01T20:25:01.116Z,41.4
2023-05-01T20:30:01.572Z,42.0
2023-05-01T20:35:00.929Z,42.6
2023-05-01T20:45:01.497Z,43.1
2023-05-01T20:55:00.618Z,43.4
2023-05-01T21:00:01.934Z,43.8
2023-05-01T21:05:00.602Z,43.9
2023-05-01T21:10:01.491Z,44.1
2023-05-01T21:15:00.940Z,44.1
2023-05-01T21:20:01.258Z,43.8
2023-05-01T21:25:02.539Z,43.8
2023-05-01T21:30:01.537Z,44.0
2023-05-01T21:35:01.159Z,44.3
2023-05-01T21:40:01.619Z,44.5
2023-05-01T21:45:01.184Z,44.7
2023-05-01T21:50:01.912Z,44.8
2023-05-01T21:55:01.123Z,44.9
2023-05-01T22:05:01.262Z,45.1
2023-05-01T22:10:02.375Z,45.3
2023-05-01T22:15:01.425Z,45.4
2023-05-01T22:25:02.935Z,45.6
2023-05-01T22:30:02.298Z,45.6
2023-05-01T22:35:00.890Z,45.6
2023-05-01T22:45:01.211Z,45.9
2023-05-01T22:55:01.104Z,46.0
2023-05-01T23:05:00.623Z,46.0
2023-05-01T23:15:01.101Z,42.5
2023-05-01T23:20:01.695Z,41.5
2023-05-01T23:25:01.376Z,43.0
2023-05-01T23:35:01.332Z,41.3
2023-05-01T23:40:01.635Z,40.7
2023-05-01T23:45:01.599Z,40.3
2023-05-01T23:50:02.017Z,40.8
2023-05-01T23:55:02.287Z,41.4
